sensor_id;sensor_type;location;lat;lon;timestamp;temperature;humidity
18753;DHT22;9505;50.882;5.350;2023-04-15T00:00:40;5.40;99.90
18753;DHT22;9505;50.882;5.350;2023-04-15T00:03:06;5.30;99.90
18753;DHT22;9505;50.882;5.350;2023-04-15T00:05:33;5.40;99.90
18753;DHT22;9505;50.882;5.350;2023-04-15T00:07:59;5.40;99.90
18753;DHT22;9505;50.882;5.350;2023-04-15T00:10:26;5.50;99.90
18753;DHT22;9505;50.882;5.350;2023-04-15T00:12:52;5.50;99.90
18753;DHT22;9505;50.882;5.350;2023-04-15T00:15:18;5.50;99.90
18753;DHT22;9505;50.882;5.350;2023-04-15T00:17:43;5.40;99.90
18753;DHT22;9505;50.882;5.350;2023-04-15T00:20:09;5.40;99.90
18753;DHT22;9505;50.882;5.350;2023-04-15T00:22:35;5.40;99.90
18753;DHT22;9505;50.882;5.350;2023-04-15T00:25:01;5.50;99.90
18753;DHT22;9505;50.882;5.350;2023-04-15T00:27:26;5.50;99.90
18753;DHT22;9505;50.882;5.350;2023-04-15T00:29:52;5.60;99.90
18753;DHT22;9505;50.882;5.350;2023-04-15T00:32:18;5.60;99.90
18753;DHT22;9505;50.882;5.350;2023-04-15T00:34:44;5.60;99.90
18753;DHT22;9505;50.882;5.350;2023-04-15T00:37:10;5.70;99.90
18753;DHT22;9505;50.882;5.350;2023-04-15T00:39:37;5.80;99.90
18753;DHT22;9505;50.882;5.350;2023-04-15T00:42:04;5.90;99.90
18753;DHT22;9505;50.882;5.350;2023-04-15T00:44:29;6.00;99.90
18753;DHT22;9505;50.882;5.350;2023-04-15T00:46:56;6.10;99.90
18753;DHT22;9505;50.882;5.350;2023-04-15T00:49:22;6.10;99.90
18753;DHT22;9505;50.882;5.350;2023-04-15T00:51:48;6.10;99.90
18753;DHT22;9505;50.882;5.350;2023-04-15T00:54:13;6.00;99.90
18753;DHT22;9505;50.882;5.350;2023-04-15T00:56:39;6.00;99.90
18753;DHT22;9505;50.882;5.350;2023-04-15T00:59:06;6.00;99.90
18753;DHT22;9505;50.882;5.350;2023-04-15T01:01:36;6.10;99.90
18753;DHT22;9505;50.882;5.350;2023-04-15T01:04:03;6.10;99.90
18753;DHT22;9505;50.882;5.350;2023-04-15T01:06:29;6.20;99.90
18753;DHT22;9505;50.882;5.350;2023-04-15T01:08:57;6.30;99.90
18753;DHT22;9505;50.882;5.350;2023-04-15T01:11:23;6.40;99.90
18753;DHT22;9505;50.882;5.350;2023-04-15T01:13:50;6.50;99.90
18753;DHT22;9505;50.882;5.350;2023-04-15T01:16:16;6.60;99.90
18753;DHT22;9505;50.882;5.350;2023-04-15T01:18:42;6.60;99.90
18753;DHT22;9505;50.882;5.350;2023-04-15T01:21:08;6.70;99.90
18753;DHT22;9505;50.882;5.350;2023-04-15T01:23:35;6.70;99.90
18753;DHT22;9505;50.882;5.350;2023-04-15T01:26:03;6.70;99.90
18753;DHT22;9505;50.882;5.350;2023-04-15T01:28:29;6.70;99.90
18753;DHT22;9505;50.882;5.350;2023-04-15T01:33:31;6.70;99.90
18753;DHT22;9505;50.882;5.350;2023-04-15T01:35:57;6.80;99.90
18753;DHT22;9505;50.882;5.350;2023-04-15T01:38:25;6.80;99.90
18753;DHT22;9505;50.882;5.350;2023-04-15T01:40:51;6.70;99.90
18753;DHT22;9505;50.882;5.350;2023-04-15T01:43:16;6.70;99.90
18753;DHT22;9505;50.882;5.350;2023-04-15T01:45:42;6.80;99.90
18753;DHT22;9505;50.882;5.350;2023-04-15T01:48:07;6.80;99.90
18753;DHT22;9505;50.882;5.350;2023-04-15T01:50:34;6.80;99.90
18753;DHT22;9505;50.882;5.350;2023-04-15T01:53:01;6.80;99.90
18753;DHT22;9505;50.882;5.350;2023-04-15T01:55:26;6.90;99.90
18753;DHT22;9505;50.882;5.350;2023-04-15T01:57:52;7.00;99.90
18753;DHT22;9505;50.882;5.350;2023-04-15T02:00:17;7.10;99.90
18753;DHT22;9505;50.882;5.350;2023-04-15T02:02:43;7.10;99.90
18753;DHT22;9505;50.882;5.350;2023-04-15T02:05:09;7.20;99.90
18753;DHT22;9505;50.882;5.350;2023-04-15T02:07:35;7.30;99.90
18753;DHT22;9505;50.882;5.350;2023-04-15T02:10:01;7.30;99.90
18753;DHT22;9505;50.882;5.350;2023-04-15T02:12:28;7.30;99.90
18753;DHT22;9505;50.882;5.350;2023-04-15T02:14:53;7.40;99.90
18753;DHT22;9505;50.882;5.350;2023-04-15T02:17:20;7.40;99.90
18753;DHT22;9505;50.882;5.350;2023-04-15T02:19:46;7.40;99.90
18753;DHT22;9505;50.882;5.350;2023-04-15T02:22:12;7.50;99.90
18753;DHT22;9505;50.882;5.350;2023-04-15T02:24:42;7.50;99.90
18753;DHT22;9505;50.882;5.350;2023-04-15T02:27:08;7.50;99.90
18753;DHT22;9505;50.882;5.350;2023-04-15T02:29:34;7.40;99.90
18753;DHT22;9505;50.882;5.350;2023-04-15T02:31:59;7.30;99.90
18753;DHT22;9505;50.882;5.350;2023-04-15T02:34:25;7.30;99.90
18753;DHT22;9505;50.882;5.350;2023-04-15T02:36:51;7.30;99.90
18753;DHT22;9505;50.882;5.350;2023-04-15T02:39:21;7.40;99.90
18753;DHT22;9505;50.882;5.350;2023-04-15T02:41:47;7.40;99.90
18753;DHT22;9505;50.882;5.350;2023-04-15T02:44:16;7.50;99.90
18753;DHT22;9505;50.882;5.350;2023-04-15T02:46:45;7.50;99.90
18753;DHT22;9505;50.882;5.350;2023-04-15T02:49:15;7.60;99.90
18753;DHT22;9505;50.882;5.350;2023-04-15T02:51:40;7.60;99.90
18753;DHT22;9505;50.882;5.350;2023-04-15T02:54:06;7.60;99.90
18753;DHT22;9505;50.882;5.350;2023-04-15T02:56:33;7.60;99.90
18753;DHT22;9505;50.882;5.350;2023-04-15T02:58:58;7.60;99.90
18753;DHT22;9505;50.882;5.350;2023-04-15T03:01:24;7.50;99.90
18753;DHT22;9505;50.882;5.350;2023-04-15T03:03:50;7.50;99.90
18753;DHT22;9505;50.882;5.350;2023-04-15T03:06:16;7.50;99.90
18753;DHT22;9505;50.882;5.350;2023-04-15T03:08:42;7.60;99.90
18753;DHT22;9505;50.882;5.350;2023-04-15T03:11:07;7.50;99.90
18753;DHT22;9505;50.882;5.350;2023-04-15T03:13:33;7.50;99.90
18753;DHT22;9505;50.882;5.350;2023-04-15T03:15:58;7.50;99.90
18753;DHT22;9505;50.882;5.350;2023-04-15T03:18:24;7.50;99.90
18753;DHT22;9505;50.882;5.350;2023-04-15T03:20:50;7.50;99.90
18753;DHT22;9505;50.882;5.350;2023-04-15T03:23:15;7.50;99.90
18753;DHT22;9505;50.882;5.350;2023-04-15T03:25:41;7.50;99.90
18753;DHT22;9505;50.882;5.350;2023-04-15T03:28:07;7.50;99.90
18753;DHT22;9505;50.882;5.350;2023-04-15T03:30:32;7.50;99.90
18753;DHT22;9505;50.882;5.350;2023-04-15T03:32:58;7.60;99.90
18753;DHT22;9505;50.882;5.350;2023-04-15T03:35:24;7.60;99.90
18753;DHT22;9505;50.882;5.350;2023-04-15T03:37:49;7.50;99.90
18753;DHT22;9505;50.882;5.350;2023-04-15T03:40:15;7.40;99.90
18753;DHT22;9505;50.882;5.350;2023-04-15T03:42:41;7.30;99.90
18753;DHT22;9505;50.882;5.350;2023-04-15T03:45:07;7.30;99.90
18753;DHT22;9505;50.882;5.350;2023-04-15T03:47:32;7.30;99.90
18753;DHT22;9505;50.882;5.350;2023-04-15T03:49:58;7.40;99.90
18753;DHT22;9505;50.882;5.350;2023-04-15T03:52:23;7.40;99.90
18753;DHT22;9505;50.882;5.350;2023-04-15T03:54:49;7.30;99.90
18753;DHT22;9505;50.882;5.350;2023-04-15T03:57:15;7.40;99.90
18753;DHT22;9505;50.882;5.350;2023-04-15T03:59:41;7.40;99.90
18753;DHT22;9505;50.882;5.350;2023-04-15T04:02:06;7.40;99.90
18753;DHT22;9505;50.882;5.350;2023-04-15T04:04:32;7.20;99.90
18753;DHT22;9505;50.882;5.350;2023-04-15T04:06:58;7.20;99.90
18753;DHT22;9505;50.882;5.350;2023-04-15T04:09:23;7.20;99.90
18753;DHT22;9505;50.882;5.350;2023-04-15T04:11:50;7.20;99.90
18753;DHT22;9505;50.882;5.350;2023-04-15T04:14:15;7.30;99.90
18753;DHT22;9505;50.882;5.350;2023-04-15T04:16:41;7.30;99.90
18753;DHT22;9505;50.882;5.350;2023-04-15T04:19:06;7.30;99.90
18753;DHT22;9505;50.882;5.350;2023-04-15T04:21:32;7.30;99.90
18753;DHT22;9505;50.882;5.350;2023-04-15T04:23:58;7.20;99.90
18753;DHT22;9505;50.882;5.350;2023-04-15T04:26:24;7.30;99.90
18753;DHT22;9505;50.882;5.350;2023-04-15T04:28:50;7.20;99.90
18753;DHT22;9505;50.882;5.350;2023-04-15T04:31:16;7.20;99.90
18753;DHT22;9505;50.882;5.350;2023-04-15T04:33:41;7.20;99.90
18753;DHT22;9505;50.882;5.350;2023-04-15T04:36:07;7.20;99.90
18753;DHT22;9505;50.882;5.350;2023-04-15T04:38:32;7.30;99.90
18753;DHT22;9505;50.882;5.350;2023-04-15T04:40:58;7.30;99.90
18753;DHT22;9505;50.882;5.350;2023-04-15T04:43:23;7.30;99.90
18753;DHT22;9505;50.882;5.350;2023-04-15T04:45:49;7.30;99.90
18753;DHT22;9505;50.882;5.350;2023-04-15T04:48:15;7.30;99.90
18753;DHT22;9505;50.882;5.350;2023-04-15T04:50:41;7.40;99.90
18753;DHT22;9505;50.882;5.350;2023-04-15T04:53:07;7.30;99.90
18753;DHT22;9505;50.882;5.350;2023-04-15T04:55:32;7.30;99.90
18753;DHT22;9505;50.882;5.350;2023-04-15T04:58:01;7.30;99.90
18753;DHT22;9505;50.882;5.350;2023-04-15T05:00:27;7.40;99.90
18753;DHT22;9505;50.882;5.350;2023-04-15T05:02:53;7.40;99.90
18753;DHT22;9505;50.882;5.350;2023-04-15T05:05:18;7.40;99.90
18753;DHT22;9505;50.882;5.350;2023-04-15T05:07:44;7.40;99.90
18753;DHT22;9505;50.882;5.350;2023-04-15T05:10:10;7.50;99.90
18753;DHT22;9505;50.882;5.350;2023-04-15T05:12:36;7.60;99.90
18753;DHT22;9505;50.882;5.350;2023-04-15T05:15:04;7.70;99.90
18753;DHT22;9505;50.882;5.350;2023-04-15T05:17:29;7.90;99.90
18753;DHT22;9505;50.882;5.350;2023-04-15T05:19:56;8.00;99.90
18753;DHT22;9505;50.882;5.350;2023-04-15T05:22:21;8.00;99.90
18753;DHT22;9505;50.882;5.350;2023-04-15T05:24:47;8.00;99.90
18753;DHT22;9505;50.882;5.350;2023-04-15T05:27:12;8.10;99.90
18753;DHT22;9505;50.882;5.350;2023-04-15T05:29:38;8.10;99.90
18753;DHT22;9505;50.882;5.350;2023-04-15T05:32:04;8.20;99.90
18753;DHT22;9505;50.882;5.350;2023-04-15T05:34:30;8.20;99.90
18753;DHT22;9505;50.882;5.350;2023-04-15T05:36:55;8.30;99.90
18753;DHT22;9505;50.882;5.350;2023-04-15T05:39:21;8.30;99.90
18753;DHT22;9505;50.882;5.350;2023-04-15T05:41:46;8.40;99.90
18753;DHT22;9505;50.882;5.350;2023-04-15T05:44:12;8.40;99.90
18753;DHT22;9505;50.882;5.350;2023-04-15T05:46:38;8.50;99.90
18753;DHT22;9505;50.882;5.350;2023-04-15T05:49:03;8.50;99.90
18753;DHT22;9505;50.882;5.350;2023-04-15T05:51:29;8.60;99.90
18753;DHT22;9505;50.882;5.350;2023-04-15T05:53:55;8.80;99.90
18753;DHT22;9505;50.882;5.350;2023-04-15T05:56:20;8.90;99.90
18753;DHT22;9505;50.882;5.350;2023-04-15T05:58:46;9.10;99.90
18753;DHT22;9505;50.882;5.350;2023-04-15T06:01:12;9.20;99.90
18753;DHT22;9505;50.882;5.350;2023-04-15T06:03:37;9.40;99.90
18753;DHT22;9505;50.882;5.350;2023-04-15T06:06:03;9.50;99.90
18753;DHT22;9505;50.882;5.350;2023-04-15T06:08:29;9.50;99.90
18753;DHT22;9505;50.882;5.350;2023-04-15T06:10:55;9.50;99.90
18753;DHT22;9505;50.882;5.350;2023-04-15T06:13:21;9.70;99.90
18753;DHT22;9505;50.882;5.350;2023-04-15T06:15:47;9.70;99.90
18753;DHT22;9505;50.882;5.350;2023-04-15T06:18:12;9.80;99.90
18753;DHT22;9505;50.882;5.350;2023-04-15T06:20:38;9.80;99.90
18753;DHT22;9505;50.882;5.350;2023-04-15T06:23:04;9.80;99.90
18753;DHT22;9505;50.882;5.350;2023-04-15T06:25:29;9.90;99.90
18753;DHT22;9505;50.882;5.350;2023-04-15T06:27:55;9.90;99.90
18753;DHT22;9505;50.882;5.350;2023-04-15T06:30:21;10.00;99.90
18753;DHT22;9505;50.882;5.350;2023-04-15T06:32:46;10.00;99.90
18753;DHT22;9505;50.882;5.350;2023-04-15T06:35:13;10.00;99.90
18753;DHT22;9505;50.882;5.350;2023-04-15T06:37:38;10.00;99.90
18753;DHT22;9505;50.882;5.350;2023-04-15T06:40:04;10.10;99.90
18753;DHT22;9505;50.882;5.350;2023-04-15T06:42:30;10.20;99.90
18753;DHT22;9505;50.882;5.350;2023-04-15T06:44:56;10.30;99.90
18753;DHT22;9505;50.882;5.350;2023-04-15T06:47:22;10.40;99.90
18753;DHT22;9505;50.882;5.350;2023-04-15T06:49:47;10.60;99.90
18753;DHT22;9505;50.882;5.350;2023-04-15T06:52:13;10.90;99.90
18753;DHT22;9505;50.882;5.350;2023-04-15T06:54:38;11.20;99.90
18753;DHT22;9505;50.882;5.350;2023-04-15T06:57:04;12.00;99.90
18753;DHT22;9505;50.882;5.350;2023-04-15T06:59:31;14.60;99.90
18753;DHT22;9505;50.882;5.350;2023-04-15T07:01:57;17.30;99.90
18753;DHT22;9505;50.882;5.350;2023-04-15T07:04:22;18.90;99.90
18753;DHT22;9505;50.882;5.350;2023-04-15T07:06:48;19.90;99.90
18753;DHT22;9505;50.882;5.350;2023-04-15T07:09:14;20.60;99.30
18753;DHT22;9505;50.882;5.350;2023-04-15T07:11:39;21.60;97.10
18753;DHT22;9505;50.882;5.350;2023-04-15T07:14:05;22.10;94.50
18753;DHT22;9505;50.882;5.350;2023-04-15T07:16:31;21.50;93.50
18753;DHT22;9505;50.882;5.350;2023-04-15T07:18:56;21.60;93.30
18753;DHT22;9505;50.882;5.350;2023-04-15T07:21:23;22.40;92.60
18753;DHT22;9505;50.882;5.350;2023-04-15T07:23:49;22.80;90.60
18753;DHT22;9505;50.882;5.350;2023-04-15T07:26:15;22.20;89.80
18753;DHT22;9505;50.882;5.350;2023-04-15T07:28:40;22.60;90.00
18753;DHT22;9505;50.882;5.350;2023-04-15T07:31:06;22.70;89.20
18753;DHT22;9505;50.882;5.350;2023-04-15T07:33:32;23.30;87.30
18753;DHT22;9505;50.882;5.350;2023-04-15T07:35:57;23.60;86.50
18753;DHT22;9505;50.882;5.350;2023-04-15T07:38:23;23.90;84.20
18753;DHT22;9505;50.882;5.350;2023-04-15T07:40:48;23.60;85.90
18753;DHT22;9505;50.882;5.350;2023-04-15T07:43:15;24.00;84.10
18753;DHT22;9505;50.882;5.350;2023-04-15T07:45:40;24.60;79.90
18753;DHT22;9505;50.882;5.350;2023-04-15T07:48:06;24.60;81.90
18753;DHT22;9505;50.882;5.350;2023-04-15T07:50:32;24.60;78.60
18753;DHT22;9505;50.882;5.350;2023-04-15T07:52:58;24.00;82.00
18753;DHT22;9505;50.882;5.350;2023-04-15T07:55:24;23.40;81.90
18753;DHT22;9505;50.882;5.350;2023-04-15T07:57:49;23.50;82.40
18753;DHT22;9505;50.882;5.350;2023-04-15T08:00:15;23.40;82.20
18753;DHT22;9505;50.882;5.350;2023-04-15T08:02:42;23.10;83.40
18753;DHT22;9505;50.882;5.350;2023-04-15T08:05:08;22.90;82.50
18753;DHT22;9505;50.882;5.350;2023-04-15T08:07:36;22.80;81.80
18753;DHT22;9505;50.882;5.350;2023-04-15T08:10:02;22.00;81.60
18753;DHT22;9505;50.882;5.350;2023-04-15T08:12:27;21.10;82.20
18753;DHT22;9505;50.882;5.350;2023-04-15T08:14:54;20.60;87.90
18753;DHT22;9505;50.882;5.350;2023-04-15T08:17:19;19.80;90.20
18753;DHT22;9505;50.882;5.350;2023-04-15T08:19:45;19.40;91.00
18753;DHT22;9505;50.882;5.350;2023-04-15T08:22:12;18.60;94.80
18753;DHT22;9505;50.882;5.350;2023-04-15T08:24:38;18.00;93.50
18753;DHT22;9505;50.882;5.350;2023-04-15T08:27:04;17.20;95.60
18753;DHT22;9505;50.882;5.350;2023-04-15T08:29:30;16.70;97.70
18753;DHT22;9505;50.882;5.350;2023-04-15T08:31:56;16.90;99.60
18753;DHT22;9505;50.882;5.350;2023-04-15T08:34:23;16.80;99.80
18753;DHT22;9505;50.882;5.350;2023-04-15T08:36:49;16.40;99.90
18753;DHT22;9505;50.882;5.350;2023-04-15T08:39:15;16.40;99.90
18753;DHT22;9505;50.882;5.350;2023-04-15T08:42:05;16.40;99.90
18753;DHT22;9505;50.882;5.350;2023-04-15T08:44:34;16.50;99.90
18753;DHT22;9505;50.882;5.350;2023-04-15T08:47:01;16.40;99.90
18753;DHT22;9505;50.882;5.350;2023-04-15T08:49:28;16.30;99.90
18753;DHT22;9505;50.882;5.350;2023-04-15T08:51:54;16.20;99.90
18753;DHT22;9505;50.882;5.350;2023-04-15T08:54:21;16.30;99.90
18753;DHT22;9505;50.882;5.350;2023-04-15T08:56:47;16.10;99.90
18753;DHT22;9505;50.882;5.350;2023-04-15T08:59:13;15.90;99.90
18753;DHT22;9505;50.882;5.350;2023-04-15T09:01:40;15.80;99.90
18753;DHT22;9505;50.882;5.350;2023-04-15T09:04:06;15.80;99.90
18753;DHT22;9505;50.882;5.350;2023-04-15T09:06:33;15.80;99.90
18753;DHT22;9505;50.882;5.350;2023-04-15T09:08:58;15.60;99.90
18753;DHT22;9505;50.882;5.350;2023-04-15T09:11:24;15.80;99.90
18753;DHT22;9505;50.882;5.350;2023-04-15T09:13:50;16.00;99.90
18753;DHT22;9505;50.882;5.350;2023-04-15T09:16:16;16.20;99.90
18753;DHT22;9505;50.882;5.350;2023-04-15T09:18:43;16.30;99.90
18753;DHT22;9505;50.882;5.350;2023-04-15T09:21:13;16.30;99.90
18753;DHT22;9505;50.882;5.350;2023-04-15T09:23:41;16.30;99.90
18753;DHT22;9505;50.882;5.350;2023-04-15T09:26:18;16.10;99.90
18753;DHT22;9505;50.882;5.350;2023-04-15T09:28:43;16.10;99.90
18753;DHT22;9505;50.882;5.350;2023-04-15T09:31:09;16.40;99.90
18753;DHT22;9505;50.882;5.350;2023-04-15T09:33:35;16.90;99.90
18753;DHT22;9505;50.882;5.350;2023-04-15T09:36:18;17.10;99.90
18753;DHT22;9505;50.882;5.350;2023-04-15T09:38:57;17.30;99.90
18753;DHT22;9505;50.882;5.350;2023-04-15T09:41:25;17.30;99.90
18753;DHT22;9505;50.882;5.350;2023-04-15T09:43:51;17.20;99.90
18753;DHT22;9505;50.882;5.350;2023-04-15T09:46:17;17.20;99.90
18753;DHT22;9505;50.882;5.350;2023-04-15T09:48:43;17.10;99.90
18753;DHT22;9505;50.882;5.350;2023-04-15T09:51:09;16.90;99.90
18753;DHT22;9505;50.882;5.350;2023-04-15T09:53:35;16.70;99.90
18753;DHT22;9505;50.882;5.350;2023-04-15T09:56:03;16.70;99.90
18753;DHT22;9505;50.882;5.350;2023-04-15T09:58:30;16.80;99.90
18753;DHT22;9505;50.882;5.350;2023-04-15T10:00:57;16.70;99.90
18753;DHT22;9505;50.882;5.350;2023-04-15T10:03:27;16.40;99.90
18753;DHT22;9505;50.882;5.350;2023-04-15T10:05:54;16.60;99.90
18753;DHT22;9505;50.882;5.350;2023-04-15T10:08:22;16.80;99.80
18753;DHT22;9505;50.882;5.350;2023-04-15T10:10:49;16.60;99.90
18753;DHT22;9505;50.882;5.350;2023-04-15T10:13:18;16.70;99.90
18753;DHT22;9505;50.882;5.350;2023-04-15T10:15:47;17.30;99.90
18753;DHT22;9505;50.882;5.350;2023-04-15T10:18:16;17.40;99.90
18753;DHT22;9505;50.882;5.350;2023-04-15T10:20:44;17.60;99.20
18753;DHT22;9505;50.882;5.350;2023-04-15T10:23:11;17.70;99.90
18753;DHT22;9505;50.882;5.350;2023-04-15T10:25:37;17.50;98.10
18753;DHT22;9505;50.882;5.350;2023-04-15T10:28:05;16.80;98.40
18753;DHT22;9505;50.882;5.350;2023-04-15T10:30:32;16.40;98.60
18753;DHT22;9505;50.882;5.350;2023-04-15T10:32:59;16.80;98.80
18753;DHT22;9505;50.882;5.350;2023-04-15T10:35:25;17.30;98.80
18753;DHT22;9505;50.882;5.350;2023-04-15T10:37:51;17.20;96.00
18753;DHT22;9505;50.882;5.350;2023-04-15T10:40:30;17.20;98.40
18753;DHT22;9505;50.882;5.350;2023-04-15T10:43:02;17.00;96.60
18753;DHT22;9505;50.882;5.350;2023-04-15T10:45:36;16.90;94.30
18753;DHT22;9505;50.882;5.350;2023-04-15T10:48:03;16.60;95.10
18753;DHT22;9505;50.882;5.350;2023-04-15T10:50:31;16.10;95.20
18753;DHT22;9505;50.882;5.350;2023-04-15T10:52:58;16.10;95.60
18753;DHT22;9505;50.882;5.350;2023-04-15T10:55:25;16.50;95.50
18753;DHT22;9505;50.882;5.350;2023-04-15T10:57:58;16.20;95.60
18753;DHT22;9505;50.882;5.350;2023-04-15T11:00:26;15.80;96.40
18753;DHT22;9505;50.882;5.350;2023-04-15T11:03:37;15.70;96.60
18753;DHT22;9505;50.882;5.350;2023-04-15T11:06:04;15.60;97.70
18753;DHT22;9505;50.882;5.350;2023-04-15T11:08:56;15.60;96.50
18753;DHT22;9505;50.882;5.350;2023-04-15T11:14:14;15.90;98.10
18753;DHT22;9505;50.882;5.350;2023-04-15T11:16:43;16.00;98.60
18753;DHT22;9505;50.882;5.350;2023-04-15T11:19:09;16.20;98.60
18753;DHT22;9505;50.882;5.350;2023-04-15T11:21:35;16.20;99.90
18753;DHT22;9505;50.882;5.350;2023-04-15T11:24:01;16.50;99.90
18753;DHT22;9505;50.882;5.350;2023-04-15T11:26:28;16.70;99.50
18753;DHT22;9505;50.882;5.350;2023-04-15T11:28:53;16.90;99.40
18753;DHT22;9505;50.882;5.350;2023-04-15T11:31:19;16.40;99.30
18753;DHT22;9505;50.882;5.350;2023-04-15T11:33:58;16.40;99.90
18753;DHT22;9505;50.882;5.350;2023-04-15T11:36:27;16.20;98.30
18753;DHT22;9505;50.882;5.350;2023-04-15T11:38:53;16.30;99.60
18753;DHT22;9505;50.882;5.350;2023-04-15T11:41:22;16.90;99.90
18753;DHT22;9505;50.882;5.350;2023-04-15T11:43:49;17.10;98.20
18753;DHT22;9505;50.882;5.350;2023-04-15T11:46:15;17.10;98.60
18753;DHT22;9505;50.882;5.350;2023-04-15T11:48:45;17.00;98.00
18753;DHT22;9505;50.882;5.350;2023-04-15T11:51:12;17.00;98.30
18753;DHT22;9505;50.882;5.350;2023-04-15T11:53:46;17.20;97.70
18753;DHT22;9505;50.882;5.350;2023-04-15T11:56:20;17.30;98.00
18753;DHT22;9505;50.882;5.350;2023-04-15T11:58:47;17.70;98.70
18753;DHT22;9505;50.882;5.350;2023-04-15T12:01:14;17.70;96.60
18753;DHT22;9505;50.882;5.350;2023-04-15T12:03:44;17.60;95.20
18753;DHT22;9505;50.882;5.350;2023-04-15T12:06:21;17.50;96.60
18753;DHT22;9505;50.882;5.350;2023-04-15T12:14:28;17.20;95.10
18753;DHT22;9505;50.882;5.350;2023-04-15T12:16:57;16.90;94.70
18753;DHT22;9505;50.882;5.350;2023-04-15T12:19:36;17.20;96.20
18753;DHT22;9505;50.882;5.350;2023-04-15T12:24:32;18.00;94.50
18753;DHT22;9505;50.882;5.350;2023-04-15T12:27:10;18.40;94.00
18753;DHT22;9505;50.882;5.350;2023-04-15T12:29:37;18.20;93.10
18753;DHT22;9505;50.882;5.350;2023-04-15T12:32:16;17.30;92.10
18753;DHT22;9505;50.882;5.350;2023-04-15T12:34:46;17.40;95.30
18753;DHT22;9505;50.882;5.350;2023-04-15T12:37:13;18.00;95.50
18753;DHT22;9505;50.882;5.350;2023-04-15T12:39:41;18.40;94.00
18753;DHT22;9505;50.882;5.350;2023-04-15T12:42:08;18.50;94.20
18753;DHT22;9505;50.882;5.350;2023-04-15T12:44:35;18.60;93.70
18753;DHT22;9505;50.882;5.350;2023-04-15T12:47:01;18.20;92.80
18753;DHT22;9505;50.882;5.350;2023-04-15T12:49:27;18.00;93.20
18753;DHT22;9505;50.882;5.350;2023-04-15T12:51:54;18.20;90.30
18753;DHT22;9505;50.882;5.350;2023-04-15T12:54:20;18.00;90.90
18753;DHT22;9505;50.882;5.350;2023-04-15T12:56:47;17.40;89.00
18753;DHT22;9505;50.882;5.350;2023-04-15T12:59:14;17.40;89.20
18753;DHT22;9505;50.882;5.350;2023-04-15T13:01:40;17.60;87.20
18753;DHT22;9505;50.882;5.350;2023-04-15T13:04:06;17.80;89.30
18753;DHT22;9505;50.882;5.350;2023-04-15T13:06:32;18.00;86.70
18753;DHT22;9505;50.882;5.350;2023-04-15T13:09:01;18.10;85.00
18753;DHT22;9505;50.882;5.350;2023-04-15T13:11:28;18.40;87.70
18753;DHT22;9505;50.882;5.350;2023-04-15T13:13:56;17.90;90.30
18753;DHT22;9505;50.882;5.350;2023-04-15T13:16:22;17.90;91.20
18753;DHT22;9505;50.882;5.350;2023-04-15T13:18:49;18.50;90.60
18753;DHT22;9505;50.882;5.350;2023-04-15T13:21:15;18.90;92.20
18753;DHT22;9505;50.882;5.350;2023-04-15T13:23:41;18.60;89.80
18753;DHT22;9505;50.882;5.350;2023-04-15T13:26:07;18.50;90.80
18753;DHT22;9505;50.882;5.350;2023-04-15T13:28:33;18.30;91.20
18753;DHT22;9505;50.882;5.350;2023-04-15T13:30:58;18.40;90.90
18753;DHT22;9505;50.882;5.350;2023-04-15T13:33:25;18.00;90.10
18753;DHT22;9505;50.882;5.350;2023-04-15T13:35:50;17.90;91.70
18753;DHT22;9505;50.882;5.350;2023-04-15T13:38:16;18.10;91.40
18753;DHT22;9505;50.882;5.350;2023-04-15T13:40:42;18.50;92.40
18753;DHT22;9505;50.882;5.350;2023-04-15T13:43:07;18.60;91.90
18753;DHT22;9505;50.882;5.350;2023-04-15T13:45:33;18.30;91.20
18753;DHT22;9505;50.882;5.350;2023-04-15T13:47:59;18.10;92.50
18753;DHT22;9505;50.882;5.350;2023-04-15T13:50:24;18.20;92.40
18753;DHT22;9505;50.882;5.350;2023-04-15T13:52:50;18.10;90.60
18753;DHT22;9505;50.882;5.350;2023-04-15T13:55:16;17.80;91.20
18753;DHT22;9505;50.882;5.350;2023-04-15T13:57:41;17.90;92.30
18753;DHT22;9505;50.882;5.350;2023-04-15T14:00:07;17.80;92.70
18753;DHT22;9505;50.882;5.350;2023-04-15T14:02:33;17.60;93.00
18753;DHT22;9505;50.882;5.350;2023-04-15T14:04:59;17.60;95.40
18753;DHT22;9505;50.882;5.350;2023-04-15T14:07:25;17.40;92.10
18753;DHT22;9505;50.882;5.350;2023-04-15T14:09:50;16.90;93.10
18753;DHT22;9505;50.882;5.350;2023-04-15T14:12:16;17.50;93.10
18753;DHT22;9505;50.882;5.350;2023-04-15T14:14:43;18.50;93.10
18753;DHT22;9505;50.882;5.350;2023-04-15T14:17:09;19.10;91.30
18753;DHT22;9505;50.882;5.350;2023-04-15T14:19:35;18.40;90.70
18753;DHT22;9505;50.882;5.350;2023-04-15T14:22:00;18.40;92.30
18753;DHT22;9505;50.882;5.350;2023-04-15T14:24:26;18.80;92.40
18753;DHT22;9505;50.882;5.350;2023-04-15T14:26:52;19.10;92.10
18753;DHT22;9505;50.882;5.350;2023-04-15T14:29:17;18.70;92.90
18753;DHT22;9505;50.882;5.350;2023-04-15T14:31:43;18.10;92.30
18753;DHT22;9505;50.882;5.350;2023-04-15T14:34:09;17.50;93.90
18753;DHT22;9505;50.882;5.350;2023-04-15T14:36:35;17.80;92.50
18753;DHT22;9505;50.882;5.350;2023-04-15T14:39:01;18.40;93.10
18753;DHT22;9505;50.882;5.350;2023-04-15T14:41:28;18.60;93.50
18753;DHT22;9505;50.882;5.350;2023-04-15T14:43:54;17.90;92.90
18753;DHT22;9505;50.882;5.350;2023-04-15T14:46:21;17.90;93.90
18753;DHT22;9505;50.882;5.350;2023-04-15T14:48:46;18.20;93.70
18753;DHT22;9505;50.882;5.350;2023-04-15T14:51:12;17.90;94.20
18753;DHT22;9505;50.882;5.350;2023-04-15T14:53:38;17.50;95.10
18753;DHT22;9505;50.882;5.350;2023-04-15T14:56:03;17.20;95.20
18753;DHT22;9505;50.882;5.350;2023-04-15T14:58:29;16.70;95.30
18753;DHT22;9505;50.882;5.350;2023-04-15T15:00:56;16.10;96.90
18753;DHT22;9505;50.882;5.350;2023-04-15T15:03:22;15.90;97.10
18753;DHT22;9505;50.882;5.350;2023-04-15T15:05:47;15.50;98.70
18753;DHT22;9505;50.882;5.350;2023-04-15T15:08:13;15.20;99.00
18753;DHT22;9505;50.882;5.350;2023-04-15T15:10:39;15.10;99.30
18753;DHT22;9505;50.882;5.350;2023-04-15T15:13:07;16.00;98.70
18753;DHT22;9505;50.882;5.350;2023-04-15T15:15:34;16.40;98.00
18753;DHT22;9505;50.882;5.350;2023-04-15T15:18:00;16.00;99.00
18753;DHT22;9505;50.882;5.350;2023-04-15T15:20:26;15.90;98.40
18753;DHT22;9505;50.882;5.350;2023-04-15T15:22:52;16.40;98.90
18753;DHT22;9505;50.882;5.350;2023-04-15T15:25:18;16.50;99.00
18753;DHT22;9505;50.882;5.350;2023-04-15T15:27:44;17.30;98.40
18753;DHT22;9505;50.882;5.350;2023-04-15T15:30:10;17.10;96.80
18753;DHT22;9505;50.882;5.350;2023-04-15T15:32:41;17.30;96.70
18753;DHT22;9505;50.882;5.350;2023-04-15T15:35:07;17.70;96.90
18753;DHT22;9505;50.882;5.350;2023-04-15T15:37:34;18.40;96.40
18753;DHT22;9505;50.882;5.350;2023-04-15T15:40:00;19.10;94.00
18753;DHT22;9505;50.882;5.350;2023-04-15T15:42:30;18.50;92.10
18753;DHT22;9505;50.882;5.350;2023-04-15T15:44:56;17.60;92.60
18753;DHT22;9505;50.882;5.350;2023-04-15T15:47:22;17.80;94.20
18753;DHT22;9505;50.882;5.350;2023-04-15T15:49:48;17.80;94.50
18753;DHT22;9505;50.882;5.350;2023-04-15T15:52:13;18.20;94.90
18753;DHT22;9505;50.882;5.350;2023-04-15T15:54:39;18.20;93.80
18753;DHT22;9505;50.882;5.350;2023-04-15T15:57:05;18.30;94.50
18753;DHT22;9505;50.882;5.350;2023-04-15T15:59:31;17.80;94.70
18753;DHT22;9505;50.882;5.350;2023-04-15T16:01:58;17.50;94.50